LA HONDA (LAH)

Elevation: 425' · SAN GREGORIO CR basin · Operator: CAL FIRE

Query executed Saturday at 19:45:22   clock

Provisional data, subject to change.
Select a sensor type for a plot of data.

Earlier

Date   /   Time   RAIN     TEMP     REL HUM     FUEL MS     FUEL TP     WIND SP     WIND DR     PEAK WS     PEAK WD     SOLAR R     BAT VOL    
(PST)INCHES   DEG F   %   %   DEG F   MPH   DEG   MPH   DEG   W/M^2   VOLTS  
01/30/2015 19:00 19.87 51 96 17 52 2 109 4 190 0.00 13.2
01/30/2015 20:00 19.87 50 97 18 50 2 43 4 105 0.00 13.1
01/30/2015 21:00 19.87 48 97 18 49 2 82 5 75 0.00 13.0
01/30/2015 22:00 19.87 45 97 20 44 0 189 5 61 0.00 12.9
01/30/2015 23:00 19.87 45 98 20 45 2 117 5 205 0.00 12.8
01/31/2015 00:00 19.87 57 57 22 46 2 149 9 0 0.00 12.8
01/31/2015 01:00 19.87 57 47 19 48 2 300 9 121 0.00 12.8
01/31/2015 02:00 19.87 59 41 18 50 3 347 15 101 0.00 12.8
01/31/2015 03:00 19.87 59 38 15 51 2 291 10 113 0.00 12.8
01/31/2015 04:00 19.87 60 32 13 53 7 49 17 40 0.00 12.8
01/31/2015 05:00 19.87 60 31 12 54 13 43 28 38 0.00 12.7
01/31/2015 06:00 19.87 59 26 11 54 10 41 27 9 0.00 12.7
01/31/2015 07:00 19.87 58 27 10 51 4 114 23 25 0.00 12.7
01/31/2015 08:00 19.87 60 26 10 54 9 41 19 67 31.00 12.9
01/31/2015 09:00 19.87 63 20 9 63 9 65 17 48 204.00 13.9
01/31/2015 10:00 19.87 65 18 9 69 11 64 28 73 358.00 13.8
01/31/2015 11:00 19.87 67 19 8 71 6 69 22 50 481.00 13.7
01/31/2015 12:00 19.87 68 17 8 75 7 37 17 34 561.00 13.7
01/31/2015 13:00 19.87 71 17 7 72 4 124 14 12 583.00 13.7
01/31/2015 14:00 19.87 71 16 7 69 6 54 15 19 544.00 13.6
01/31/2015 15:00 19.87 72 17 7 72 6 15 15 8 451.00 13.6
01/31/2015 16:00 19.87 72 17 6 67 5 32 15 357 315.00 13.6
01/31/2015 17:00 19.87 69 18 6 59 3 359 12 30 153.00 13.9
01/31/2015 18:00 19.87 58 30 6 50 5 82 6 24 6.00 13.4
01/31/2015 19:00 19.87 53 42 7 45 2 21 7 79 0.00 13.2

Later | Latest

Warning! This data is preliminary and subject to revision.

Show LAH Map | 24 Hours LAH Data | Plot all LAH Sensors | Daily LAH Data | LAH Info